Terminal Aerodrome Forecast
Issued by NWS Grand Junction, CO

Home | Current Version | Previous Version | Text Only | Print | Product List | Glossary On
Versions: 1 2 3 4 5 6 7 8 9 10 11 12 13 14 15 16 17 18 19 20 21 22 23 24 25 26 27 28 29 30 31 32 33 34 35 36 37 38
000
FTUS45 KGJT 201125
TAFGJT
TAF
KGJT 201125Z 2012/2112 14003KT P6SM SKC
     FM201900 21007KT P6SM FEW120 FEW250
     FM202200 20011G20KT P6SM FEW130 FEW250
     FM210200 16006KT P6SM FEW120 FEW250
     FM210600 13006KT P6SM FEW130 FEW250=

USA.gov is the U.S. government's official web portal to all federal, state and local government web resources and services.